sensor_id;sensor_type;location;lat;lon;timestamp;temperature;humidity
27072;DHT22;14613;46.308;25.288;2022-08-20T00:01:50;22.20;76.60
27072;DHT22;14613;46.308;25.288;2022-08-20T00:04:16;22.20;76.70
27072;DHT22;14613;46.308;25.288;2022-08-20T00:06:42;22.20;76.80
27072;DHT22;14613;46.308;25.288;2022-08-20T00:09:08;22.20;77.00
27072;DHT22;14613;46.308;25.288;2022-08-20T00:11:34;22.20;77.00
27072;DHT22;14613;46.308;25.288;2022-08-20T00:14:02;22.10;77.10
27072;DHT22;14613;46.308;25.288;2022-08-20T00:16:31;22.10;77.30
27072;DHT22;14613;46.308;25.288;2022-08-20T00:19:02;22.10;77.40
27072;DHT22;14613;46.308;25.288;2022-08-20T00:21:28;22.10;77.50
27072;DHT22;14613;46.308;25.288;2022-08-20T00:23:55;22.00;77.40
27072;DHT22;14613;46.308;25.288;2022-08-20T00:26:22;22.00;77.50
27072;DHT22;14613;46.308;25.288;2022-08-20T00:28:48;22.00;77.70
27072;DHT22;14613;46.308;25.288;2022-08-20T00:31:17;21.90;77.80
27072;DHT22;14613;46.308;25.288;2022-08-20T00:33:44;21.80;77.90
27072;DHT22;14613;46.308;25.288;2022-08-20T00:36:10;21.80;77.90
27072;DHT22;14613;46.308;25.288;2022-08-20T00:38:41;21.80;78.10
27072;DHT22;14613;46.308;25.288;2022-08-20T00:41:11;21.80;78.20
27072;DHT22;14613;46.308;25.288;2022-08-20T00:43:42;21.80;78.30
27072;DHT22;14613;46.308;25.288;2022-08-20T00:46:14;21.80;78.40
27072;DHT22;14613;46.308;25.288;2022-08-20T00:48:42;21.70;78.50
27072;DHT22;14613;46.308;25.288;2022-08-20T00:51:40;21.70;78.50
27072;DHT22;14613;46.308;25.288;2022-08-20T00:54:20;21.70;78.70
27072;DHT22;14613;46.308;25.288;2022-08-20T00:56:51;21.70;78.70
27072;DHT22;14613;46.308;25.288;2022-08-20T00:59:23;21.60;78.70
27072;DHT22;14613;46.308;25.288;2022-08-20T01:01:50;21.60;78.80
27072;DHT22;14613;46.308;25.288;2022-08-20T01:04:16;21.50;78.90
27072;DHT22;14613;46.308;25.288;2022-08-20T01:06:42;21.50;79.00
27072;DHT22;14613;46.308;25.288;2022-08-20T01:09:10;21.50;79.20
27072;DHT22;14613;46.308;25.288;2022-08-20T01:11:36;21.40;79.20
27072;DHT22;14613;46.308;25.288;2022-08-20T01:14:08;21.40;79.40
27072;DHT22;14613;46.308;25.288;2022-08-20T01:16:55;21.30;79.60
27072;DHT22;14613;46.308;25.288;2022-08-20T01:19:44;21.30;79.60
27072;DHT22;14613;46.308;25.288;2022-08-20T01:22:14;21.20;79.70
27072;DHT22;14613;46.308;25.288;2022-08-20T01:25:21;21.20;79.60
27072;DHT22;14613;46.308;25.288;2022-08-20T01:27:49;21.10;80.10
27072;DHT22;14613;46.308;25.288;2022-08-20T01:30:16;21.00;80.00
27072;DHT22;14613;46.308;25.288;2022-08-20T01:32:42;20.90;80.10
27072;DHT22;14613;46.308;25.288;2022-08-20T01:35:08;20.90;80.40
27072;DHT22;14613;46.308;25.288;2022-08-20T01:37:34;20.70;80.70
27072;DHT22;14613;46.308;25.288;2022-08-20T01:40:02;20.70;81.10
27072;DHT22;14613;46.308;25.288;2022-08-20T01:42:37;20.60;81.40
27072;DHT22;14613;46.308;25.288;2022-08-20T01:45:05;20.60;81.80
27072;DHT22;14613;46.308;25.288;2022-08-20T01:47:32;20.50;81.70
27072;DHT22;14613;46.308;25.288;2022-08-20T01:50:02;20.50;82.00
27072;DHT22;14613;46.308;25.288;2022-08-20T01:52:45;20.50;82.10
27072;DHT22;14613;46.308;25.288;2022-08-20T01:55:13;20.50;83.10
27072;DHT22;14613;46.308;25.288;2022-08-20T01:57:40;20.50;82.10
27072;DHT22;14613;46.308;25.288;2022-08-20T02:00:09;20.50;82.20
27072;DHT22;14613;46.308;25.288;2022-08-20T02:02:37;20.50;82.50
27072;DHT22;14613;46.308;25.288;2022-08-20T02:05:03;20.50;83.20
27072;DHT22;14613;46.308;25.288;2022-08-20T02:07:29;20.50;82.50
27072;DHT22;14613;46.308;25.288;2022-08-20T02:09:57;20.50;82.60
27072;DHT22;14613;46.308;25.288;2022-08-20T02:12:22;20.50;82.60
27072;DHT22;14613;46.308;25.288;2022-08-20T02:14:50;20.50;82.60
27072;DHT22;14613;46.308;25.288;2022-08-20T02:17:18;20.60;82.70
27072;DHT22;14613;46.308;25.288;2022-08-20T02:20:17;20.60;82.70
27072;DHT22;14613;46.308;25.288;2022-08-20T02:22:53;20.60;82.90
27072;DHT22;14613;46.308;25.288;2022-08-20T02:25:21;20.60;82.60
27072;DHT22;14613;46.308;25.288;2022-08-20T02:27:48;20.60;82.60
27072;DHT22;14613;46.308;25.288;2022-08-20T02:30:29;20.60;82.60
27072;DHT22;14613;46.308;25.288;2022-08-20T02:32:58;20.60;82.80
27072;DHT22;14613;46.308;25.288;2022-08-20T02:35:25;20.60;82.60
27072;DHT22;14613;46.308;25.288;2022-08-20T02:37:52;20.60;82.60
27072;DHT22;14613;46.308;25.288;2022-08-20T02:40:20;20.60;82.60
27072;DHT22;14613;46.308;25.288;2022-08-20T02:42:46;20.50;83.40
27072;DHT22;14613;46.308;25.288;2022-08-20T02:45:14;20.60;82.60
27072;DHT22;14613;46.308;25.288;2022-08-20T02:47:41;20.60;82.60
27072;DHT22;14613;46.308;25.288;2022-08-20T02:50:12;20.50;82.60
27072;DHT22;14613;46.308;25.288;2022-08-20T02:52:40;20.60;82.70
27072;DHT22;14613;46.308;25.288;2022-08-20T02:55:06;20.50;82.70
27072;DHT22;14613;46.308;25.288;2022-08-20T02:57:33;20.50;82.70
27072;DHT22;14613;46.308;25.288;2022-08-20T02:59:58;20.40;82.80
27072;DHT22;14613;46.308;25.288;2022-08-20T03:02:24;20.40;82.80
27072;DHT22;14613;46.308;25.288;2022-08-20T03:04:50;20.30;82.90
27072;DHT22;14613;46.308;25.288;2022-08-20T03:07:16;20.30;83.00
27072;DHT22;14613;46.308;25.288;2022-08-20T03:09:42;20.20;83.10
27072;DHT22;14613;46.308;25.288;2022-08-20T03:12:08;20.20;83.20
27072;DHT22;14613;46.308;25.288;2022-08-20T03:14:34;20.10;83.30
27072;DHT22;14613;46.308;25.288;2022-08-20T03:17:01;20.10;83.40
27072;DHT22;14613;46.308;25.288;2022-08-20T03:19:27;20.10;83.50
27072;DHT22;14613;46.308;25.288;2022-08-20T03:21:53;20.10;83.70
27072;DHT22;14613;46.308;25.288;2022-08-20T03:24:19;20.00;83.90
27072;DHT22;14613;46.308;25.288;2022-08-20T03:26:44;20.00;84.00
27072;DHT22;14613;46.308;25.288;2022-08-20T03:29:10;20.00;84.00
27072;DHT22;14613;46.308;25.288;2022-08-20T03:31:37;20.00;84.00
27072;DHT22;14613;46.308;25.288;2022-08-20T03:34:02;20.00;84.20
27072;DHT22;14613;46.308;25.288;2022-08-20T03:36:29;20.00;84.30
27072;DHT22;14613;46.308;25.288;2022-08-20T03:38:56;20.00;84.30
27072;DHT22;14613;46.308;25.288;2022-08-20T03:41:22;20.00;84.20
27072;DHT22;14613;46.308;25.288;2022-08-20T03:43:48;20.00;84.20
27072;DHT22;14613;46.308;25.288;2022-08-20T03:46:14;20.00;84.30
27072;DHT22;14613;46.308;25.288;2022-08-20T03:48:39;20.00;84.50
27072;DHT22;14613;46.308;25.288;2022-08-20T03:51:05;20.10;84.80
27072;DHT22;14613;46.308;25.288;2022-08-20T03:53:32;20.20;85.10
27072;DHT22;14613;46.308;25.288;2022-08-20T03:55:59;20.30;85.30
27072;DHT22;14613;46.308;25.288;2022-08-20T03:58:30;20.50;85.40
27072;DHT22;14613;46.308;25.288;2022-08-20T04:00:56;20.80;85.20
27072;DHT22;14613;46.308;25.288;2022-08-20T04:03:22;21.10;85.10
27072;DHT22;14613;46.308;25.288;2022-08-20T04:05:48;21.30;84.80
27072;DHT22;14613;46.308;25.288;2022-08-20T04:08:23;21.60;84.30
27072;DHT22;14613;46.308;25.288;2022-08-20T04:10:51;21.80;83.50
27072;DHT22;14613;46.308;25.288;2022-08-20T04:13:20;22.10;83.00
27072;DHT22;14613;46.308;25.288;2022-08-20T04:15:46;22.30;82.40
27072;DHT22;14613;46.308;25.288;2022-08-20T04:18:13;22.50;81.80
27072;DHT22;14613;46.308;25.288;2022-08-20T04:20:41;22.80;81.20
27072;DHT22;14613;46.308;25.288;2022-08-20T04:23:08;23.10;80.70
27072;DHT22;14613;46.308;25.288;2022-08-20T04:25:36;23.50;80.00
27072;DHT22;14613;46.308;25.288;2022-08-20T04:28:06;23.80;79.00
27072;DHT22;14613;46.308;25.288;2022-08-20T04:30:33;24.20;78.30
27072;DHT22;14613;46.308;25.288;2022-08-20T04:32:59;24.50;77.30
27072;DHT22;14613;46.308;25.288;2022-08-20T04:35:25;24.90;76.30
27072;DHT22;14613;46.308;25.288;2022-08-20T04:38:06;25.20;75.20
27072;DHT22;14613;46.308;25.288;2022-08-20T04:40:33;25.50;73.50
27072;DHT22;14613;46.308;25.288;2022-08-20T04:43:23;25.70;72.80
27072;DHT22;14613;46.308;25.288;2022-08-20T04:45:50;25.90;71.80
27072;DHT22;14613;46.308;25.288;2022-08-20T04:48:20;25.90;71.30
27072;DHT22;14613;46.308;25.288;2022-08-20T04:50:47;26.00;71.20
27072;DHT22;14613;46.308;25.288;2022-08-20T04:53:15;26.10;70.90
27072;DHT22;14613;46.308;25.288;2022-08-20T04:55:42;26.30;70.60
27072;DHT22;14613;46.308;25.288;2022-08-20T04:58:27;26.50;70.00
27072;DHT22;14613;46.308;25.288;2022-08-20T05:00:56;26.70;69.30
27072;DHT22;14613;46.308;25.288;2022-08-20T05:03:23;27.00;69.00
27072;DHT22;14613;46.308;25.288;2022-08-20T05:05:49;27.20;68.30
27072;DHT22;14613;46.308;25.288;2022-08-20T05:08:18;27.40;67.60
27072;DHT22;14613;46.308;25.288;2022-08-20T05:10:44;27.70;67.10
27072;DHT22;14613;46.308;25.288;2022-08-20T05:13:11;28.00;66.30
27072;DHT22;14613;46.308;25.288;2022-08-20T05:15:38;28.30;65.60
27072;DHT22;14613;46.308;25.288;2022-08-20T05:18:06;28.60;64.90
27072;DHT22;14613;46.308;25.288;2022-08-20T05:20:35;28.90;64.30
27072;DHT22;14613;46.308;25.288;2022-08-20T05:23:03;29.20;63.70
27072;DHT22;14613;46.308;25.288;2022-08-20T05:25:29;29.50;63.00
27072;DHT22;14613;46.308;25.288;2022-08-20T05:28:07;29.80;62.00
27072;DHT22;14613;46.308;25.288;2022-08-20T05:30:36;30.10;60.60
27072;DHT22;14613;46.308;25.288;2022-08-20T05:33:04;30.30;60.50
27072;DHT22;14613;46.308;25.288;2022-08-20T05:35:32;30.60;60.10
27072;DHT22;14613;46.308;25.288;2022-08-20T05:38:09;30.80;59.60
27072;DHT22;14613;46.308;25.288;2022-08-20T05:40:37;31.00;59.00
27072;DHT22;14613;46.308;25.288;2022-08-20T05:43:03;31.20;58.10
27072;DHT22;14613;46.308;25.288;2022-08-20T05:45:30;31.30;57.40
27072;DHT22;14613;46.308;25.288;2022-08-20T05:47:56;31.50;56.90
27072;DHT22;14613;46.308;25.288;2022-08-20T05:50:23;31.60;56.60
27072;DHT22;14613;46.308;25.288;2022-08-20T05:52:49;31.70;56.50
27072;DHT22;14613;46.308;25.288;2022-08-20T05:55:15;31.90;56.20
27072;DHT22;14613;46.308;25.288;2022-08-20T05:57:41;32.00;55.70
27072;DHT22;14613;46.308;25.288;2022-08-20T06:00:10;32.20;55.30
27072;DHT22;14613;46.308;25.288;2022-08-20T06:02:36;32.30;54.70
27072;DHT22;14613;46.308;25.288;2022-08-20T06:05:21;32.50;54.70
27072;DHT22;14613;46.308;25.288;2022-08-20T06:07:47;32.70;54.60
27072;DHT22;14613;46.308;25.288;2022-08-20T06:10:16;32.90;54.20
27072;DHT22;14613;46.308;25.288;2022-08-20T06:12:42;33.10;53.90
27072;DHT22;14613;46.308;25.288;2022-08-20T06:15:12;33.30;53.20
27072;DHT22;14613;46.308;25.288;2022-08-20T06:17:38;33.30;52.80
27072;DHT22;14613;46.308;25.288;2022-08-20T06:20:06;33.40;53.00
27072;DHT22;14613;46.308;25.288;2022-08-20T06:22:33;33.50;52.40
27072;DHT22;14613;46.308;25.288;2022-08-20T06:25:00;33.40;51.90
27072;DHT22;14613;46.308;25.288;2022-08-20T06:27:25;33.50;52.20
27072;DHT22;14613;46.308;25.288;2022-08-20T06:29:52;33.60;52.10
27072;DHT22;14613;46.308;25.288;2022-08-20T06:32:19;33.80;52.00
27072;DHT22;14613;46.308;25.288;2022-08-20T06:34:46;34.00;51.70
27072;DHT22;14613;46.308;25.288;2022-08-20T06:37:14;34.30;51.40
27072;DHT22;14613;46.308;25.288;2022-08-20T06:39:41;34.50;50.80
27072;DHT22;14613;46.308;25.288;2022-08-20T06:42:06;34.60;50.60
27072;DHT22;14613;46.308;25.288;2022-08-20T06:44:32;34.60;50.10
27072;DHT22;14613;46.308;25.288;2022-08-20T06:47:02;34.40;49.80
27072;DHT22;14613;46.308;25.288;2022-08-20T06:49:30;34.30;50.10
27072;DHT22;14613;46.308;25.288;2022-08-20T06:51:56;34.50;50.40
27072;DHT22;14613;46.308;25.288;2022-08-20T06:54:22;34.70;50.30
27072;DHT22;14613;46.308;25.288;2022-08-20T06:56:49;34.80;49.60
27072;DHT22;14613;46.308;25.288;2022-08-20T06:59:14;34.90;48.90
27072;DHT22;14613;46.308;25.288;2022-08-20T07:01:40;34.90;48.70
27072;DHT22;14613;46.308;25.288;2022-08-20T07:04:06;35.00;48.50
27072;DHT22;14613;46.308;25.288;2022-08-20T07:06:33;35.10;48.10
27072;DHT22;14613;46.308;25.288;2022-08-20T07:08:59;35.10;48.00
27072;DHT22;14613;46.308;25.288;2022-08-20T07:11:25;35.20;47.80
27072;DHT22;14613;46.308;25.288;2022-08-20T07:13:51;35.30;47.60
27072;DHT22;14613;46.308;25.288;2022-08-20T07:16:17;35.50;47.60
27072;DHT22;14613;46.308;25.288;2022-08-20T07:18:43;35.70;47.40
27072;DHT22;14613;46.308;25.288;2022-08-20T07:21:09;35.90;47.10
27072;DHT22;14613;46.308;25.288;2022-08-20T07:23:36;36.10;46.80
27072;DHT22;14613;46.308;25.288;2022-08-20T07:26:02;36.30;46.60
27072;DHT22;14613;46.308;25.288;2022-08-20T07:28:28;36.40;46.60
27072;DHT22;14613;46.308;25.288;2022-08-20T07:30:57;36.60;46.50
27072;DHT22;14613;46.308;25.288;2022-08-20T07:33:42;36.70;46.00
27072;DHT22;14613;46.308;25.288;2022-08-20T07:36:09;36.70;45.70
27072;DHT22;14613;46.308;25.288;2022-08-20T07:38:35;36.90;45.80
27072;DHT22;14613;46.308;25.288;2022-08-20T07:41:05;37.00;45.70
27072;DHT22;14613;46.308;25.288;2022-08-20T07:43:32;37.10;45.60
27072;DHT22;14613;46.308;25.288;2022-08-20T07:45:59;37.10;45.50
27072;DHT22;14613;46.308;25.288;2022-08-20T07:48:28;37.20;45.20
27072;DHT22;14613;46.308;25.288;2022-08-20T07:50:56;37.10;45.10
27072;DHT22;14613;46.308;25.288;2022-08-20T07:53:22;37.10;45.00
27072;DHT22;14613;46.308;25.288;2022-08-20T07:55:48;36.90;44.80
27072;DHT22;14613;46.308;25.288;2022-08-20T07:58:17;36.70;44.60
27072;DHT22;14613;46.308;25.288;2022-08-20T08:00:44;36.40;44.40
27072;DHT22;14613;46.308;25.288;2022-08-20T08:03:10;36.20;44.10
27072;DHT22;14613;46.308;25.288;2022-08-20T08:05:39;36.10;44.10
27072;DHT22;14613;46.308;25.288;2022-08-20T08:08:08;36.00;44.40
27072;DHT22;14613;46.308;25.288;2022-08-20T08:10:35;35.90;44.60
27072;DHT22;14613;46.308;25.288;2022-08-20T08:13:04;35.90;44.50
27072;DHT22;14613;46.308;25.288;2022-08-20T08:15:33;35.80;44.40
27072;DHT22;14613;46.308;25.288;2022-08-20T08:18:02;35.80;44.30
27072;DHT22;14613;46.308;25.288;2022-08-20T08:20:31;35.70;44.10
27072;DHT22;14613;46.308;25.288;2022-08-20T08:22:58;35.70;44.40
27072;DHT22;14613;46.308;25.288;2022-08-20T08:25:25;35.60;44.20
27072;DHT22;14613;46.308;25.288;2022-08-20T08:27:50;35.70;44.10
27072;DHT22;14613;46.308;25.288;2022-08-20T08:30:16;35.60;43.60
27072;DHT22;14613;46.308;25.288;2022-08-20T08:32:42;35.60;43.60
27072;DHT22;14613;46.308;25.288;2022-08-20T08:35:27;35.60;43.10
27072;DHT22;14613;46.308;25.288;2022-08-20T08:37:54;35.50;42.90
27072;DHT22;14613;46.308;25.288;2022-08-20T08:40:20;35.40;43.20
27072;DHT22;14613;46.308;25.288;2022-08-20T08:42:51;35.30;43.40
27072;DHT22;14613;46.308;25.288;2022-08-20T08:45:38;35.40;43.50
27072;DHT22;14613;46.308;25.288;2022-08-20T08:48:15;35.40;44.30
27072;DHT22;14613;46.308;25.288;2022-08-20T08:50:44;35.30;43.80
27072;DHT22;14613;46.308;25.288;2022-08-20T08:53:33;35.40;44.00
27072;DHT22;14613;46.308;25.288;2022-08-20T08:56:01;35.50;43.80
27072;DHT22;14613;46.308;25.288;2022-08-20T08:58:27;35.50;43.90
27072;DHT22;14613;46.308;25.288;2022-08-20T09:00:54;35.60;44.10
27072;DHT22;14613;46.308;25.288;2022-08-20T09:03:30;35.60;43.90
27072;DHT22;14613;46.308;25.288;2022-08-20T09:05:59;35.50;43.80
27072;DHT22;14613;46.308;25.288;2022-08-20T09:08:33;35.50;44.10
27072;DHT22;14613;46.308;25.288;2022-08-20T09:11:05;35.60;44.10
27072;DHT22;14613;46.308;25.288;2022-08-20T09:13:31;35.60;44.00
27072;DHT22;14613;46.308;25.288;2022-08-20T09:15:57;35.70;44.00
27072;DHT22;14613;46.308;25.288;2022-08-20T09:18:23;35.70;43.90
27072;DHT22;14613;46.308;25.288;2022-08-20T09:20:49;35.80;43.80
27072;DHT22;14613;46.308;25.288;2022-08-20T09:23:14;35.90;43.80
27072;DHT22;14613;46.308;25.288;2022-08-20T09:25:40;36.00;43.70
27072;DHT22;14613;46.308;25.288;2022-08-20T09:28:06;36.00;43.60
27072;DHT22;14613;46.308;25.288;2022-08-20T09:30:32;36.10;43.60
27072;DHT22;14613;46.308;25.288;2022-08-20T09:32:59;36.10;43.50
27072;DHT22;14613;46.308;25.288;2022-08-20T09:35:25;36.20;43.50
27072;DHT22;14613;46.308;25.288;2022-08-20T09:37:51;36.30;43.50
27072;DHT22;14613;46.308;25.288;2022-08-20T09:40:18;36.40;43.60
27072;DHT22;14613;46.308;25.288;2022-08-20T09:42:44;36.50;43.30
27072;DHT22;14613;46.308;25.288;2022-08-20T09:45:11;36.60;43.00
27072;DHT22;14613;46.308;25.288;2022-08-20T09:47:39;36.70;42.90
27072;DHT22;14613;46.308;25.288;2022-08-20T09:50:05;36.70;42.80
27072;DHT22;14613;46.308;25.288;2022-08-20T09:52:35;36.70;42.40
27072;DHT22;14613;46.308;25.288;2022-08-20T09:55:20;36.60;42.20
27072;DHT22;14613;46.308;25.288;2022-08-20T09:57:49;36.20;41.90
27072;DHT22;14613;46.308;25.288;2022-08-20T10:00:16;36.00;42.50
27072;DHT22;14613;46.308;25.288;2022-08-20T10:02:42;35.90;42.60
27072;DHT22;14613;46.308;25.288;2022-08-20T10:05:08;35.70;42.80
27072;DHT22;14613;46.308;25.288;2022-08-20T10:07:36;35.70;43.20
27072;DHT22;14613;46.308;25.288;2022-08-20T10:10:04;35.70;43.50
27072;DHT22;14613;46.308;25.288;2022-08-20T10:12:30;35.90;43.50
27072;DHT22;14613;46.308;25.288;2022-08-20T10:14:56;35.90;42.80
27072;DHT22;14613;46.308;25.288;2022-08-20T10:17:22;35.80;42.60
27072;DHT22;14613;46.308;25.288;2022-08-20T10:19:48;35.80;42.80
27072;DHT22;14613;46.308;25.288;2022-08-20T10:22:13;35.80;42.70
27072;DHT22;14613;46.308;25.288;2022-08-20T10:24:39;36.00;43.10
27072;DHT22;14613;46.308;25.288;2022-08-20T10:27:05;36.10;43.20
27072;DHT22;14613;46.308;25.288;2022-08-20T10:29:32;36.30;43.10
27072;DHT22;14613;46.308;25.288;2022-08-20T10:32:07;36.40;42.70
27072;DHT22;14613;46.308;25.288;2022-08-20T10:34:37;36.40;42.70
27072;DHT22;14613;46.308;25.288;2022-08-20T10:37:02;36.40;42.80
27072;DHT22;14613;46.308;25.288;2022-08-20T10:39:28;36.40;42.00
27072;DHT22;14613;46.308;25.288;2022-08-20T10:41:54;36.20;41.80
27072;DHT22;14613;46.308;25.288;2022-08-20T10:44:38;36.10;41.90
27072;DHT22;14613;46.308;25.288;2022-08-20T10:49:43;36.20;42.50
27072;DHT22;14613;46.308;25.288;2022-08-20T10:52:09;36.30;42.20
27072;DHT22;14613;46.308;25.288;2022-08-20T10:54:35;36.20;42.00
27072;DHT22;14613;46.308;25.288;2022-08-20T10:57:01;36.10;41.90
27072;DHT22;14613;46.308;25.288;2022-08-20T10:59:27;36.20;41.90
27072;DHT22;14613;46.308;25.288;2022-08-20T11:01:53;36.00;41.50
27072;DHT22;14613;46.308;25.288;2022-08-20T11:04:19;35.90;42.00
27072;DHT22;14613;46.308;25.288;2022-08-20T11:06:44;36.00;42.20
27072;DHT22;14613;46.308;25.288;2022-08-20T11:09:10;36.00;41.80
27072;DHT22;14613;46.308;25.288;2022-08-20T11:11:36;35.90;41.70
27072;DHT22;14613;46.308;25.288;2022-08-20T11:14:02;35.90;41.80
27072;DHT22;14613;46.308;25.288;2022-08-20T11:16:28;35.80;41.70
27072;DHT22;14613;46.308;25.288;2022-08-20T11:18:54;35.70;41.50
27072;DHT22;14613;46.308;25.288;2022-08-20T11:21:20;35.80;42.00
27072;DHT22;14613;46.308;25.288;2022-08-20T11:23:46;36.00;42.20
27072;DHT22;14613;46.308;25.288;2022-08-20T11:26:21;36.30;42.00
27072;DHT22;14613;46.308;25.288;2022-08-20T11:28:47;36.50;41.90
27072;DHT22;14613;46.308;25.288;2022-08-20T11:31:13;36.70;41.90
27072;DHT22;14613;46.308;25.288;2022-08-20T11:33:39;36.90;41.80
27072;DHT22;14613;46.308;25.288;2022-08-20T11:36:05;37.20;41.80
27072;DHT22;14613;46.308;25.288;2022-08-20T11:38:31;37.30;41.40
27072;DHT22;14613;46.308;25.288;2022-08-20T11:40:56;37.50;41.20
27072;DHT22;14613;46.308;25.288;2022-08-20T11:43:22;37.50;40.90
27072;DHT22;14613;46.308;25.288;2022-08-20T11:45:51;37.50;40.50
27072;DHT22;14613;46.308;25.288;2022-08-20T11:48:17;37.50;40.50
27072;DHT22;14613;46.308;25.288;2022-08-20T11:50:43;37.60;40.50
27072;DHT22;14613;46.308;25.288;2022-08-20T11:53:09;37.60;40.20
27072;DHT22;14613;46.308;25.288;2022-08-20T11:55:35;37.70;40.00
27072;DHT22;14613;46.308;25.288;2022-08-20T11:58:01;37.80;40.00
27072;DHT22;14613;46.308;25.288;2022-08-20T12:00:28;37.90;39.90
27072;DHT22;14613;46.308;25.288;2022-08-20T12:02:55;38.00;39.80
27072;DHT22;14613;46.308;25.288;2022-08-20T12:05:20;38.10;39.70
27072;DHT22;14613;46.308;25.288;2022-08-20T12:07:46;38.20;39.40
27072;DHT22;14613;46.308;25.288;2022-08-20T12:10:13;38.20;38.90
27072;DHT22;14613;46.308;25.288;2022-08-20T12:12:39;38.20;38.80
27072;DHT22;14613;46.308;25.288;2022-08-20T12:15:06;38.20;38.50
27072;DHT22;14613;46.308;25.288;2022-08-20T12:17:33;38.30;38.50
27072;DHT22;14613;46.308;25.288;2022-08-20T12:20:02;38.10;38.10
27072;DHT22;14613;46.308;25.288;2022-08-20T12:22:29;37.80;37.80
27072;DHT22;14613;46.308;25.288;2022-08-20T12:24:55;37.50;37.90
27072;DHT22;14613;46.308;25.288;2022-08-20T12:27:26;37.20;38.50
27072;DHT22;14613;46.308;25.288;2022-08-20T12:29:54;37.20;38.60
27072;DHT22;14613;46.308;25.288;2022-08-20T12:32:23;37.30;38.90
27072;DHT22;14613;46.308;25.288;2022-08-20T12:34:50;37.40;38.80
27072;DHT22;14613;46.308;25.288;2022-08-20T12:37:19;37.60;38.90
27072;DHT22;14613;46.308;25.288;2022-08-20T12:39:48;37.70;38.70
27072;DHT22;14613;46.308;25.288;2022-08-20T12:42:14;37.80;38.70
27072;DHT22;14613;46.308;25.288;2022-08-20T12:44:41;37.90;38.70
27072;DHT22;14613;46.308;25.288;2022-08-20T12:47:19;38.00;38.50
27072;DHT22;14613;46.308;25.288;2022-08-20T12:49:48;38.00;38.10
27072;DHT22;14613;46.308;25.288;2022-08-20T12:52:16;38.00;38.00
27072;DHT22;14613;46.308;25.288;2022-08-20T12:54:42;38.00;38.00
27072;DHT22;14613;46.308;25.288;2022-08-20T12:57:34;37.90;37.60
27072;DHT22;14613;46.308;25.288;2022-08-20T13:00:01;37.80;37.50
27072;DHT22;14613;46.308;25.288;2022-08-20T13:02:28;37.80;37.60
27072;DHT22;14613;46.308;25.288;2022-08-20T13:04:53;37.80;37.50
27072;DHT22;14613;46.308;25.288;2022-08-20T13:07:19;37.80;37.40
27072;DHT22;14613;46.308;25.288;2022-08-20T13:09:45;37.80;37.40
27072;DHT22;14613;46.308;25.288;2022-08-20T13:12:11;37.80;37.40
27072;DHT22;14613;46.308;25.288;2022-08-20T13:14:39;37.80;37.40
27072;DHT22;14613;46.308;25.288;2022-08-20T13:17:23;37.80;37.20
27072;DHT22;14613;46.308;25.288;2022-08-20T13:19:49;37.70;36.90
27072;DHT22;14613;46.308;25.288;2022-08-20T13:22:15;37.60;36.80
27072;DHT22;14613;46.308;25.288;2022-08-20T13:24:41;37.40;36.60
27072;DHT22;14613;46.308;25.288;2022-08-20T13:27:12;37.40;37.10
27072;DHT22;14613;46.308;25.288;2022-08-20T13:29:48;37.20;36.10
27072;DHT22;14613;46.308;25.288;2022-08-20T13:32:15;37.10;36.50
27072;DHT22;14613;46.308;25.288;2022-08-20T13:34:41;37.10;37.00
27072;DHT22;14613;46.308;25.288;2022-08-20T13:37:14;37.10;37.10
27072;DHT22;14613;46.308;25.288;2022-08-20T13:39:41;37.20;37.10
27072;DHT22;14613;46.308;25.288;2022-08-20T13:42:08;37.20;37.30
27072;DHT22;14613;46.308;25.288;2022-08-20T13:44:34;37.20;37.30
27072;DHT22;14613;46.308;25.288;2022-08-20T13:47:11;37.10;37.10
27072;DHT22;14613;46.308;25.288;2022-08-20T13:49:36;37.10;37.20
27072;DHT22;14613;46.308;25.288;2022-08-20T13:52:02;37.10;37.20
27072;DHT22;14613;46.308;25.288;2022-08-20T13:54:28;37.10;37.10
27072;DHT22;14613;46.308;25.288;2022-08-20T13:57:12;37.00;37.20
27072;DHT22;14613;46.308;25.288;2022-08-20T13:59:41;37.00;37.90
27072;DHT22;14613;46.308;25.288;2022-08-20T14:02:07;37.00;37.20
27072;DHT22;14613;46.308;25.288;2022-08-20T14:04:34;37.00;36.90
27072;DHT22;14613;46.308;25.288;2022-08-20T14:07:23;37.00;36.60
27072;DHT22;14613;46.308;25.288;2022-08-20T14:09:59;36.80;36.00
27072;DHT22;14613;46.308;25.288;2022-08-20T14:12:25;36.70;35.90
27072;DHT22;14613;46.308;25.288;2022-08-20T16:49:29;31.50;46.60
27072;DHT22;14613;46.308;25.288;2022-08-20T16:51:56;31.40;47.00
27072;DHT22;14613;46.308;25.288;2022-08-20T16:54:22;31.40;48.00
27072;DHT22;14613;46.308;25.288;2022-08-20T16:56:57;31.40;47.70
27072;DHT22;14613;46.308;25.288;2022-08-20T16:59:23;31.40;48.00
27072;DHT22;14613;46.308;25.288;2022-08-20T17:02:00;31.40;48.00
27072;DHT22;14613;46.308;25.288;2022-08-20T17:04:26;31.40;48.50
27072;DHT22;14613;46.308;25.288;2022-08-20T17:06:53;31.30;48.50
27072;DHT22;14613;46.308;25.288;2022-08-20T17:09:34;31.20;48.90
27072;DHT22;14613;46.308;25.288;2022-08-20T17:12:33;31.00;49.30
27072;DHT22;14613;46.308;25.288;2022-08-20T17:14:58;30.90;49.50
27072;DHT22;14613;46.308;25.288;2022-08-20T17:17:31;30.90;49.40
27072;DHT22;14613;46.308;25.288;2022-08-20T17:20:03;30.90;49.80
27072;DHT22;14613;46.308;25.288;2022-08-20T17:22:30;30.90;50.00
27072;DHT22;14613;46.308;25.288;2022-08-20T17:25:28;30.90;50.40
27072;DHT22;14613;46.308;25.288;2022-08-20T17:27:54;30.70;51.10
27072;DHT22;14613;46.308;25.288;2022-08-20T17:30:25;30.70;50.90
27072;DHT22;14613;46.308;25.288;2022-08-20T17:32:59;30.60;51.30
27072;DHT22;14613;46.308;25.288;2022-08-20T17:38:03;30.50;51.80
27072;DHT22;14613;46.308;25.288;2022-08-20T17:43:00;30.40;52.00
27072;DHT22;14613;46.308;25.288;2022-08-20T17:45:44;30.30;52.30
27072;DHT22;14613;46.308;25.288;2022-08-20T17:48:15;30.30;52.70
27072;DHT22;14613;46.308;25.288;2022-08-20T17:50:43;30.10;52.60
27072;DHT22;14613;46.308;25.288;2022-08-20T17:53:25;30.00;52.70
27072;DHT22;14613;46.308;25.288;2022-08-20T17:56:00;30.00;53.10
27072;DHT22;14613;46.308;25.288;2022-08-20T17:58:44;29.90;53.20
27072;DHT22;14613;46.308;25.288;2022-08-20T18:01:13;29.90;53.50
27072;DHT22;14613;46.308;25.288;2022-08-20T18:03:39;29.80;53.40
27072;DHT22;14613;46.308;25.288;2022-08-20T18:07:12;29.80;53.50
27072;DHT22;14613;46.308;25.288;2022-08-20T18:09:16;29.80;53.80